Terminal Aerodrome Forecast
Issued by NWS

Home | Current Version | Previous Version | Text Only | Print | Product List | Glossary On
Versions: 1 2 3 4 5 6 7 8 9 10 11 12 13 14 15 16
000
FTUS41 KBGM 271414 AAA
TAFRME
TAF AMD
KRME 271414Z 2714/2812 29008KT P6SM OVC035
      TEMPO 2714/2718 -SHRASN OVC020
     FM271800 30012G18KT P6SM -SHRA SCT025 OVC035
     FM280100 31005KT P6SM OVC035=

USA.gov is the U.S. government's official web portal to all federal, state and local government web resources and services.